createdAt,value
2018-02-21T00:00:07.030Z,82.60
2018-02-21T00:02:37.406Z,82.50
2018-02-21T00:05:09.338Z,82.40
2018-02-21T00:07:40.554Z,82.20
2018-02-21T00:10:10.931Z,82.10
2018-02-21T00:12:41.274Z,82.20
2018-02-21T00:15:11.685Z,82.20
2018-02-21T00:17:42.023Z,82.00
2018-02-21T00:20:12.469Z,82.20
2018-02-21T00:22:42.861Z,82.10
2018-02-21T00:25:15.068Z,82.60
2018-02-21T00:27:45.517Z,82.60
2018-02-21T00:30:17.069Z,82.40
2018-02-21T00:32:47.464Z,82.40
2018-02-21T00:35:17.859Z,82.10
2018-02-21T00:37:48.252Z,82.40
2018-02-21T00:40:19.390Z,82.50
2018-02-21T00:42:50.776Z,82.50
2018-02-21T00:45:21.181Z,81.70
2018-02-21T00:47:52.380Z,81.50
2018-02-21T00:50:22.806Z,81.50
2018-02-21T00:52:53.284Z,81.60
2018-02-21T00:55:25.585Z,81.40
2018-02-21T00:57:56.014Z,81.40
2018-02-21T01:00:26.826Z,81.70
2018-02-21T01:02:57.278Z,81.60
2018-02-21T01:05:28.919Z,80.60
2018-02-21T01:07:59.424Z,78.80
2018-02-21T01:10:30.562Z,77.60
2018-02-21T01:13:02.202Z,77.00
2018-02-21T01:15:32.645Z,76.90
2018-02-21T01:18:04.495Z,75.10
2018-02-21T01:20:35.708Z,75.10
2018-02-21T01:23:06.178Z,75.00
2018-02-21T01:25:38.614Z,75.20
2018-02-21T01:28:09.078Z,75.10
2018-02-21T01:30:42.057Z,75.70
2018-02-21T01:33:13.235Z,75.10
2018-02-21T01:35:43.587Z,75.00
2018-02-21T01:38:13.992Z,74.00
2018-02-21T01:40:45.414Z,73.60
2018-02-21T01:43:17.142Z,71.90
2018-02-21T01:45:47.542Z,72.00
2018-02-21T01:48:18.095Z,70.80
2018-02-21T01:50:54.852Z,69.00
2018-02-21T01:53:25.165Z,69.20
2018-02-21T01:55:55.944Z,69.90
2018-02-21T01:58:27.134Z,69.60
2018-02-21T02:00:58.497Z,69.60
2018-02-21T02:03:28.906Z,68.80
2018-02-21T02:05:59.937Z,68.60
2018-02-21T02:08:30.307Z,68.00
2018-02-21T02:11:01.589Z,67.80
2018-02-21T02:13:32.343Z,67.60
2018-02-21T02:16:02.837Z,68.00
2018-02-21T02:18:34.395Z,67.60
2018-02-21T02:21:05.609Z,67.90
2018-02-21T02:23:36.124Z,67.90
2018-02-21T02:26:08.024Z,68.40
2018-02-21T02:28:39.240Z,67.70
2018-02-21T02:31:10.755Z,67.70
2018-02-21T02:33:41.163Z,67.60
2018-02-21T02:36:11.607Z,67.40
2018-02-21T02:38:49.090Z,67.30
2018-02-21T02:41:19.446Z,67.30
2018-02-21T02:43:50.063Z,67.90
2018-02-21T02:46:20.498Z,65.90
2018-02-21T02:48:50.946Z,66.50
2018-02-21T02:51:21.373Z,67.20
2018-02-21T02:53:51.846Z,66.00
2018-02-21T02:56:23.710Z,66.90
2018-02-21T02:58:54.141Z,66.80
2018-02-21T03:01:24.768Z,66.60
2018-02-21T03:03:55.233Z,66.70
2018-02-21T03:06:25.667Z,66.30
2018-02-21T03:08:56.094Z,65.90
2018-02-21T03:11:26.507Z,65.60
2018-02-21T03:13:57.502Z,65.60
2018-02-21T03:16:28.689Z,65.50
2018-02-21T03:19:00.772Z,65.10
2018-02-21T03:21:31.214Z,65.60
2018-02-21T03:24:01.605Z,66.30
2018-02-21T03:26:32.045Z,66.00
2018-02-21T03:29:02.834Z,65.20
2018-02-21T03:31:34.210Z,64.80
2018-02-21T03:34:04.627Z,64.80
2018-02-21T03:36:35.021Z,64.50
2018-02-21T03:39:06.497Z,64.40
2018-02-21T03:41:37.521Z,64.30
2018-02-21T03:44:10.035Z,64.70
2018-02-21T03:46:40.425Z,64.70
2018-02-21T03:49:11.746Z,62.50
2018-02-21T03:51:42.222Z,62.50
2018-02-21T03:54:12.610Z,62.70
2018-02-21T03:56:44.373Z,62.90
2018-02-21T03:59:15.558Z,63.00
2018-02-21T04:01:46.674Z,63.00
2018-02-21T04:04:17.027Z,62.60
2018-02-21T04:06:47.475Z,61.90
2018-02-21T04:09:17.866Z,61.60
2018-02-21T04:11:48.451Z,61.60
2018-02-21T04:14:19.825Z,59.20
2018-02-21T04:16:50.963Z,58.50
2018-02-21T04:19:22.485Z,59.00
2018-02-21T04:21:52.844Z,59.00
2018-02-21T04:24:24.039Z,59.00
2018-02-21T04:26:54.419Z,59.00
2018-02-21T04:29:24.834Z,59.00
2018-02-21T04:31:56.460Z,58.50
2018-02-21T04:34:26.953Z,58.50
2018-02-21T04:36:57.389Z,58.60
2018-02-21T04:39:28.138Z,59.00
2018-02-21T04:41:58.696Z,59.20
2018-02-21T04:44:29.832Z,58.80
2018-02-21T04:47:00.209Z,58.80
2018-02-21T04:49:31.001Z,58.50
2018-02-21T04:52:02.200Z,57.30
2018-02-21T04:54:36.575Z,57.30
2018-02-21T04:57:12.777Z,56.90
2018-02-21T04:59:57.740Z,57.50
2018-02-21T05:02:29.401Z,57.30
2018-02-21T05:04:59.870Z,57.00
2018-02-21T05:07:31.053Z,56.80
2018-02-21T05:10:02.666Z,56.80
2018-02-21T05:12:33.386Z,56.50
2018-02-21T05:15:04.113Z,56.70
2018-02-21T05:17:34.486Z,56.90
2018-02-21T05:20:07.918Z,56.60
2018-02-21T05:22:38.293Z,56.40
2018-02-21T05:25:10.267Z,56.40
2018-02-21T05:27:41.442Z,56.50
2018-02-21T05:30:11.850Z,56.50
2018-02-21T05:32:42.666Z,56.70
2018-02-21T05:35:13.802Z,55.20
2018-02-21T05:37:45.285Z,55.40
2018-02-21T05:40:15.680Z,55.40
2018-02-21T05:42:47.128Z,56.30
2018-02-21T05:45:19.297Z,56.50
2018-02-21T05:47:50.520Z,56.30
2018-02-21T05:50:21.006Z,56.30
2018-02-21T05:52:51.445Z,56.70
2018-02-21T05:55:21.822Z,55.70
2018-02-21T05:57:52.999Z,57.00
2018-02-21T06:00:23.408Z,57.00
2018-02-21T06:02:54.994Z,57.20
2018-02-21T06:05:25.375Z,57.20
2018-02-21T06:07:56.607Z,57.80
2018-02-21T06:10:27.810Z,57.90
2018-02-21T06:12:58.788Z,57.90
2018-02-21T06:15:29.446Z,58.30
2018-02-21T06:18:00.646Z,57.50
2018-02-21T06:20:31.412Z,57.50
2018-02-21T06:23:02.530Z,58.90
2018-02-21T06:25:33.001Z,58.90
2018-02-21T06:28:03.403Z,59.00
2018-02-21T06:30:34.614Z,59.40
2018-02-21T06:33:05.363Z,59.40
2018-02-21T06:35:35.715Z,60.20
2018-02-21T06:38:06.871Z,60.50
2018-02-21T06:40:38.538Z,60.50
2018-02-21T06:43:09.707Z,60.10
2018-02-21T06:45:40.083Z,60.00
2018-02-21T06:48:11.353Z,59.50
2018-02-21T06:50:41.879Z,59.50
2018-02-21T06:53:12.302Z,59.40
2018-02-21T06:55:42.712Z,58.80
2018-02-21T06:58:14.907Z,58.60
2018-02-21T07:00:45.349Z,58.00
2018-02-21T07:03:16.220Z,58.30
2018-02-21T07:05:46.897Z,58.10
2018-02-21T07:08:17.448Z,57.60
2018-02-21T07:10:47.853Z,56.90
2018-02-21T07:13:18.290Z,56.50
2018-02-21T07:15:48.697Z,56.40
2018-02-21T07:18:19.067Z,56.20
2018-02-21T07:20:49.723Z,56.00
2018-02-21T07:23:20.091Z,56.40
2018-02-21T07:25:50.691Z,56.40
2018-02-21T07:28:22.939Z,56.30
2018-02-21T07:30:53.417Z,56.20
2018-02-21T07:33:24.069Z,57.10
2018-02-21T07:35:54.529Z,58.00
2018-02-21T07:38:25.355Z,58.60
2018-02-21T07:40:55.734Z,59.00
2018-02-21T07:43:26.178Z,58.90
2018-02-21T07:45:56.589Z,58.60
2018-02-21T07:48:27.014Z,58.40
2018-02-21T07:50:58.391Z,59.00
2018-02-21T07:53:28.860Z,60.20
2018-02-21T07:56:00.164Z,60.30
2018-02-21T07:58:30.573Z,60.30
2018-02-21T08:01:01.028Z,60.70
2018-02-21T08:03:31.475Z,61.20
2018-02-21T08:06:01.897Z,61.20
2018-02-21T08:08:32.789Z,61.50
2018-02-21T08:11:03.302Z,61.60
2018-02-21T08:13:33.689Z,61.50
2018-02-21T08:16:04.122Z,61.80
2018-02-21T08:18:34.574Z,61.50
2018-02-21T08:21:06.954Z,60.10
2018-02-21T08:23:37.417Z,60.00
2018-02-21T08:26:08.140Z,60.10
2018-02-21T08:28:38.507Z,59.60
2018-02-21T08:31:08.925Z,59.70
2018-02-21T08:33:39.992Z,59.50
2018-02-21T08:36:11.241Z,59.50
2018-02-21T08:38:42.878Z,59.40
2018-02-21T08:41:13.270Z,59.40
2018-02-21T08:43:43.715Z,59.80
2018-02-21T08:46:14.154Z,57.90
2018-02-21T08:48:44.558Z,58.10
2018-02-21T08:51:15.260Z,58.40
2018-02-21T08:53:46.024Z,58.60
2018-02-21T08:56:16.839Z,58.90
2018-02-21T08:58:47.278Z,59.00
2018-02-21T09:01:17.677Z,58.90
2018-02-21T09:03:48.102Z,58.60
2018-02-21T09:06:18.514Z,58.50
2018-02-21T09:08:50.063Z,58.90
2018-02-21T09:11:21.225Z,59.00
2018-02-21T09:13:51.774Z,59.00
2018-02-21T09:16:22.202Z,59.20
2018-02-21T09:18:52.635Z,59.50
2018-02-21T09:21:23.108Z,59.80
2018-02-21T09:23:54.335Z,60.20
2018-02-21T09:26:25.189Z,59.60
2018-02-21T09:28:56.347Z,59.00
2018-02-21T09:31:26.839Z,59.00
2018-02-21T09:33:58.270Z,59.30
2018-02-21T09:36:28.691Z,59.90
2018-02-21T09:38:59.272Z,60.10
2018-02-21T09:41:30.552Z,59.30
2018-02-21T09:44:01.513Z,59.20
2018-02-21T09:46:32.002Z,59.70
2018-02-21T09:49:02.767Z,59.90
2018-02-21T09:51:33.286Z,59.90
2018-02-21T09:54:03.796Z,60.10
2018-02-21T09:56:34.785Z,59.70
2018-02-21T09:59:05.178Z,59.80
2018-02-21T10:01:35.638Z,60.10
2018-02-21T10:04:05.994Z,60.30
2018-02-21T10:06:37.235Z,60.00
2018-02-21T10:09:08.988Z,59.90
2018-02-21T10:11:40.198Z,59.80
2018-02-21T10:14:10.981Z,59.80
2018-02-21T10:16:42.114Z,59.70
2018-02-21T10:19:13.223Z,59.90
2018-02-21T10:21:43.691Z,59.90
2018-02-21T10:24:14.843Z,59.50
2018-02-21T10:26:46.125Z,59.50
2018-02-21T10:29:16.598Z,59.30
2018-02-21T10:31:49.897Z,59.50
2018-02-21T10:34:21.065Z,59.50
2018-02-21T10:36:51.481Z,59.50
2018-02-21T10:39:21.866Z,59.70
2018-02-21T10:41:52.314Z,59.60
2018-02-21T10:44:24.488Z,59.50
2018-02-21T10:46:55.646Z,59.60
2018-02-21T10:49:26.104Z,59.50
2018-02-21T10:51:57.231Z,59.60
2018-02-21T10:54:27.633Z,59.90
2018-02-21T10:56:59.972Z,59.90
2018-02-21T10:59:30.452Z,59.90
2018-02-21T11:02:01.121Z,62.30
2018-02-21T11:04:31.523Z,63.70
2018-02-21T11:07:02.661Z,64.20
2018-02-21T11:09:33.009Z,63.70
2018-02-21T11:12:03.490Z,63.70
2018-02-21T11:14:34.021Z,64.00
2018-02-21T11:17:04.447Z,64.50
2018-02-21T11:19:35.829Z,64.40
2018-02-21T11:22:06.251Z,64.30
2018-02-21T11:24:36.654Z,63.70
2018-02-21T11:27:07.171Z,62.80
2018-02-21T11:29:38.334Z,62.70
2018-02-21T11:32:09.922Z,62.60
2018-02-21T11:34:40.328Z,62.80
2018-02-21T11:37:10.725Z,63.00
2018-02-21T11:39:41.079Z,63.00
2018-02-21T11:42:11.526Z,62.80
2018-02-21T11:44:42.309Z,62.50
2018-02-21T11:47:13.481Z,62.60
2018-02-21T11:49:43.966Z,62.60
2018-02-21T11:52:16.060Z,62.90
2018-02-21T11:54:46.475Z,62.90
2018-02-21T11:57:17.686Z,63.10
2018-02-21T11:59:48.064Z,63.10
2018-02-21T12:02:18.620Z,63.10
2018-02-21T12:04:49.108Z,63.20
2018-02-21T12:07:19.734Z,63.30
2018-02-21T12:09:50.129Z,63.50
2018-02-21T12:12:20.526Z,63.60
2018-02-21T12:14:53.847Z,64.00
2018-02-21T12:17:24.248Z,63.90
2018-02-21T12:19:55.082Z,64.10
2018-02-21T12:22:25.524Z,64.40
2018-02-21T12:24:55.991Z,64.80
2018-02-21T12:27:27.167Z,65.30
2018-02-21T12:29:57.601Z,65.30
2018-02-21T12:32:31.684Z,65.20
2018-02-21T12:35:02.026Z,65.30
2018-02-21T12:37:32.397Z,65.50
2018-02-21T12:40:02.749Z,66.00
2018-02-21T12:42:33.934Z,66.30
2018-02-21T12:45:04.724Z,66.30
2018-02-21T12:47:35.878Z,66.60
2018-02-21T12:50:06.789Z,66.60
2018-02-21T12:52:37.985Z,66.30
2018-02-21T12:55:08.384Z,66.30
2018-02-21T12:57:38.742Z,66.20
2018-02-21T13:00:09.261Z,66.40
2018-02-21T13:02:40.431Z,66.40
2018-02-21T13:05:10.871Z,66.40
2018-02-21T13:07:41.310Z,66.60
2018-02-21T13:10:12.467Z,66.10
2018-02-21T13:12:43.659Z,65.60
2018-02-21T13:15:15.333Z,65.60
2018-02-21T13:17:46.454Z,65.20
2018-02-21T13:20:17.089Z,65.20
2018-02-21T13:22:47.627Z,65.20
2018-02-21T13:25:18.151Z,65.40
2018-02-21T13:27:48.599Z,65.80
2018-02-21T13:30:19.014Z,66.30
2018-02-21T13:32:49.815Z,67.50
2018-02-21T13:35:20.213Z,68.00
2018-02-21T13:37:52.444Z,68.30
2018-02-21T13:40:22.915Z,68.30
2018-02-21T13:42:54.117Z,67.60
2018-02-21T13:45:24.731Z,67.60
2018-02-21T13:47:56.256Z,67.20
2018-02-21T13:50:28.031Z,67.80
2018-02-21T13:52:58.954Z,68.10
2018-02-21T13:55:29.427Z,68.90
2018-02-21T13:57:59.831Z,69.10
2018-02-21T14:00:31.194Z,69.40
2018-02-21T14:03:02.043Z,69.50
2018-02-21T14:05:32.471Z,69.30
2018-02-21T14:08:03.192Z,69.10
2018-02-21T14:10:34.471Z,68.90
2018-02-21T14:13:05.654Z,69.40
2018-02-21T14:15:36.968Z,69.30
2018-02-21T14:18:08.169Z,70.20
2018-02-21T14:20:40.017Z,70.20
2018-02-21T14:23:10.494Z,71.90
2018-02-21T14:25:41.641Z,73.30
2018-02-21T14:28:13.322Z,72.30
2018-02-21T14:30:43.743Z,72.30
2018-02-21T14:33:15.594Z,72.20
2018-02-21T14:35:46.750Z,71.90
2018-02-21T14:38:17.790Z,71.80
2018-02-21T14:40:48.240Z,71.80
2018-02-21T14:43:18.722Z,71.80
2018-02-21T14:45:49.950Z,71.70
2018-02-21T14:48:20.406Z,71.70
2018-02-21T14:50:52.892Z,71.30
2018-02-21T14:53:23.314Z,71.30
2018-02-21T14:55:55.642Z,71.30
2018-02-21T14:58:27.254Z,71.30
2018-02-21T15:00:58.689Z,71.40
2018-02-21T15:03:29.434Z,71.20
2018-02-21T15:05:59.856Z,71.20
2018-02-21T15:08:33.275Z,71.30
2018-02-21T15:11:03.790Z,71.60
2018-02-21T15:13:34.254Z,71.70
2018-02-21T15:16:05.001Z,71.80
2018-02-21T15:18:35.431Z,71.80
2018-02-21T15:21:06.196Z,71.80
2018-02-21T15:23:38.119Z,72.40
2018-02-21T15:26:08.514Z,71.70
2018-02-21T15:28:39.268Z,71.80
2018-02-21T15:31:09.717Z,71.80
2018-02-21T15:33:40.140Z,71.90
2018-02-21T15:36:10.579Z,71.20
2018-02-21T15:38:42.144Z,71.50
2018-02-21T15:41:12.665Z,71.50
2018-02-21T15:43:43.918Z,71.70
2018-02-21T15:46:15.182Z,71.50
2018-02-21T15:48:45.678Z,71.40
2018-02-21T15:51:17.198Z,71.80
2018-02-21T15:53:48.243Z,71.70
2018-02-21T15:56:18.766Z,71.80
2018-02-21T15:58:49.247Z,71.80
2018-02-21T16:01:19.719Z,72.00
2018-02-21T16:03:50.170Z,71.90
2018-02-21T16:06:20.617Z,71.60
2018-02-21T16:08:51.824Z,72.20
2018-02-21T16:11:22.265Z,72.20
2018-02-21T16:13:52.619Z,72.40
2018-02-21T16:16:23.834Z,72.50
2018-02-21T16:18:55.491Z,72.50
2018-02-21T16:21:26.438Z,72.60
2018-02-21T16:23:56.843Z,72.60
2018-02-21T16:26:28.714Z,72.60
2018-02-21T16:28:59.111Z,72.70
2018-02-21T16:31:29.543Z,72.70
2018-02-21T16:34:00.137Z,72.50
2018-02-21T16:36:31.482Z,72.60
2018-02-21T16:39:03.524Z,72.90
2018-02-21T16:41:35.836Z,73.40
2018-02-21T16:44:06.233Z,73.30
2018-02-21T16:46:36.760Z,73.60
2018-02-21T16:49:07.942Z,73.50
2018-02-21T16:51:38.835Z,73.50
2018-02-21T16:54:15.163Z,73.40
2018-02-21T16:56:45.757Z,73.30
2018-02-21T16:59:16.173Z,73.20
2018-02-21T17:01:46.650Z,73.10
2018-02-21T17:04:17.118Z,73.10
2018-02-21T17:06:48.262Z,73.30
2018-02-21T17:09:19.705Z,73.10
2018-02-21T17:11:50.854Z,73.20
2018-02-21T17:14:22.072Z,73.30
2018-02-21T17:16:52.534Z,73.20
2018-02-21T17:19:23.093Z,73.60
2018-02-21T17:21:53.893Z,73.50
2018-02-21T17:24:25.019Z,73.70
2018-02-21T17:26:56.481Z,73.60
2018-02-21T17:29:27.680Z,74.00
2018-02-21T17:31:58.045Z,73.90
2018-02-21T17:34:29.276Z,74.30
2018-02-21T17:36:59.723Z,74.30
2018-02-21T17:39:31.403Z,74.30
2018-02-21T17:42:01.822Z,74.30
2018-02-21T17:44:32.961Z,74.30
2018-02-21T17:47:03.431Z,74.40
2018-02-21T17:49:33.798Z,74.40
2018-02-21T17:52:05.146Z,73.90
2018-02-21T17:54:36.342Z,73.80
2018-02-21T17:57:07.853Z,73.80
2018-02-21T17:59:39.643Z,73.20
2018-02-21T18:02:10.484Z,73.10
2018-02-21T18:04:41.786Z,73.30
2018-02-21T18:07:13.058Z,72.70
2018-02-21T18:09:43.865Z,72.70
2018-02-21T18:12:16.349Z,72.60
2018-02-21T18:14:47.518Z,72.60
2018-02-21T18:17:17.969Z,73.30
2018-02-21T18:19:48.398Z,72.70
2018-02-21T18:22:19.012Z,72.70
2018-02-21T18:24:49.401Z,72.60
2018-02-21T18:27:21.039Z,72.90
2018-02-21T18:29:51.469Z,72.90
2018-02-21T18:32:22.733Z,73.10
2018-02-21T18:34:53.946Z,73.00
2018-02-21T18:40:34.260Z,72.90
2018-02-21T18:43:04.714Z,73.20
2018-02-21T18:45:34.453Z,73.10
2018-02-21T18:48:04.189Z,73.30
2018-02-21T18:50:35.176Z,73.30
2018-02-21T18:53:04.915Z,73.30
2018-02-21T18:55:34.618Z,73.40
2018-02-21T18:58:04.303Z,73.30
2018-02-21T19:00:34.006Z,72.80
2018-02-21T19:03:03.743Z,73.00
2018-02-21T19:05:33.522Z,73.10
2018-02-21T19:08:03.178Z,73.20
2018-02-21T19:10:32.837Z,73.20
2018-02-21T19:13:02.496Z,73.20
2018-02-21T19:15:32.227Z,73.20
2018-02-21T19:18:02.663Z,73.40
2018-02-21T19:20:33.083Z,73.60
2018-02-21T19:23:03.609Z,73.80
2018-02-21T19:25:33.923Z,73.70
2018-02-21T19:28:03.650Z,73.90
2018-02-21T19:30:34.047Z,74.00
2018-02-21T19:33:03.739Z,73.90
2018-02-21T19:35:34.431Z,74.00
2018-02-21T19:38:04.255Z,73.90
2018-02-21T19:40:33.917Z,74.00
2018-02-21T19:43:03.598Z,74.00
2018-02-21T19:45:33.275Z,74.10
2018-02-21T19:48:02.993Z,74.10
2018-02-21T19:50:32.663Z,74.20
2018-02-21T19:53:02.344Z,74.20
2018-02-21T19:55:31.994Z,74.10
2018-02-21T19:58:02.518Z,74.30
2018-02-21T20:00:32.208Z,74.20
2018-02-21T20:03:01.883Z,74.40
2018-02-21T20:05:31.639Z,74.60
2018-02-21T20:08:01.338Z,74.90
2018-02-21T20:10:30.991Z,74.90
2018-02-21T20:13:00.713Z,74.80
2018-02-21T20:15:30.407Z,74.50
2018-02-21T20:18:00.456Z,74.60
2018-02-21T20:20:30.137Z,74.70
2018-02-21T20:23:00.194Z,74.60
2018-02-21T20:25:29.930Z,74.50
2018-02-21T20:28:00.473Z,74.50
2018-02-21T20:30:30.887Z,74.50
2018-02-21T20:33:00.581Z,74.50
2018-02-21T20:35:30.211Z,74.70
2018-02-21T20:38:00.985Z,74.90
2018-02-21T20:40:30.649Z,74.90
2018-02-21T20:43:00.329Z,75.00
2018-02-21T20:45:30.046Z,75.00
2018-02-21T20:47:59.740Z,75.00
2018-02-21T20:50:30.090Z,75.20
2018-02-21T20:52:59.798Z,75.20
2018-02-21T20:55:29.502Z,75.30
2018-02-21T20:57:59.198Z,75.20
2018-02-21T21:00:28.966Z,75.30
2018-02-21T21:02:58.714Z,75.30
2018-02-21T21:05:28.564Z,75.40
2018-02-21T21:07:58.252Z,75.30
2018-02-21T21:10:28.791Z,75.60
2018-02-21T21:12:59.217Z,75.70
2018-02-21T21:15:28.951Z,75.70
2018-02-21T21:17:59.418Z,75.10
2018-02-21T21:20:29.165Z,75.10
2018-02-21T21:23:00.147Z,75.10
2018-02-21T21:25:29.820Z,74.60
2018-02-21T21:27:59.483Z,74.70
2018-02-21T21:30:29.160Z,74.90
2018-02-21T21:32:59.568Z,75.10
2018-02-21T21:35:29.282Z,75.00
2018-02-21T21:38:00.615Z,75.00
2018-02-21T21:40:30.361Z,75.00
2018-02-21T21:43:00.136Z,74.90
2018-02-21T21:45:29.806Z,75.00
2018-02-21T21:47:59.465Z,75.20
2018-02-21T21:50:29.152Z,75.20
2018-02-21T21:52:58.910Z,75.40
2018-02-21T21:55:28.686Z,75.50
2018-02-21T21:57:58.664Z,75.50
2018-02-21T22:00:28.390Z,75.40
2018-02-21T22:02:58.716Z,75.60
2018-02-21T22:05:28.418Z,75.80
2018-02-21T22:07:58.085Z,76.00
2018-02-21T22:10:27.778Z,76.20
2018-02-21T22:12:58.246Z,76.20
2018-02-21T22:15:27.884Z,76.20
2018-02-21T22:17:57.621Z,76.10
2018-02-21T22:20:28.130Z,76.10
2018-02-21T22:22:57.903Z,76.10
2018-02-21T22:25:27.563Z,76.10
2018-02-21T22:27:57.303Z,76.10
2018-02-21T22:30:26.965Z,76.20
2018-02-21T22:32:56.638Z,76.20
2018-02-21T22:35:26.277Z,76.30
2018-02-21T22:37:55.949Z,76.40
2018-02-21T22:40:25.641Z,76.60
2018-02-21T22:42:56.183Z,76.70
2018-02-21T22:45:25.936Z,76.70
2018-02-21T22:47:55.610Z,76.60
2018-02-21T22:50:25.335Z,76.60
2018-02-21T22:52:55.055Z,76.50
2018-02-21T22:55:24.782Z,76.50
2018-02-21T22:57:55.315Z,76.70
2018-02-21T23:00:25.210Z,76.90
2018-02-21T23:02:54.908Z,77.00
2018-02-21T23:05:24.575Z,76.90
2018-02-21T23:07:54.257Z,77.00
2018-02-21T23:10:23.937Z,77.00
2018-02-21T23:12:53.614Z,77.20
2018-02-21T23:15:23.269Z,77.40
2018-02-21T23:17:53.025Z,77.60
2018-02-21T23:20:22.682Z,77.60
2018-02-21T23:22:52.377Z,77.40
2018-02-21T23:25:22.119Z,77.40
2018-02-21T23:27:52.032Z,77.30
2018-02-21T23:30:21.729Z,77.30
2018-02-21T23:32:51.494Z,77.30
2018-02-21T23:35:21.160Z,77.20
2018-02-21T23:37:51.197Z,77.20
2018-02-21T23:40:22.044Z,77.00
2018-02-21T23:42:52.560Z,77.20
2018-02-21T23:45:22.994Z,77.50
2018-02-21T23:47:53.445Z,77.80
2018-02-21T23:50:24.026Z,77.60
2018-02-21T23:52:53.752Z,77.80
2018-02-21T23:55:24.401Z,77.50
2018-02-21T23:57:54.416Z,77.60
